sensor_id;sensor_type;location;lat;lon;timestamp;P1;durP1;ratioP1;P2;durP2;ratioP2
64110;SDS011;50401;48.188;11.566;2022-08-06T00:00:49;4.78;;;2.40;;
64110;SDS011;50401;48.188;11.566;2022-08-06T00:03:20;7.63;;;2.50;;
64110;SDS011;50401;48.188;11.566;2022-08-06T00:05:46;5.15;;;2.35;;
64110;SDS011;50401;48.188;11.566;2022-08-06T00:08:15;5.28;;;3.03;;
64110;SDS011;50401;48.188;11.566;2022-08-06T00:10:44;5.70;;;2.50;;
64110;SDS011;50401;48.188;11.566;2022-08-06T00:15:35;7.68;;;2.55;;
64110;SDS011;50401;48.188;11.566;2022-08-06T00:18:01;4.68;;;2.58;;
64110;SDS011;50401;48.188;11.566;2022-08-06T00:20:27;6.00;;;3.10;;
64110;SDS011;50401;48.188;11.566;2022-08-06T00:22:52;7.20;;;2.83;;
64110;SDS011;50401;48.188;11.566;2022-08-06T00:25:18;8.95;;;2.95;;
64110;SDS011;50401;48.188;11.566;2022-08-06T00:27:44;6.40;;;3.10;;
64110;SDS011;50401;48.188;11.566;2022-08-06T00:30:10;7.22;;;3.30;;
64110;SDS011;50401;48.188;11.566;2022-08-06T00:32:36;5.78;;;2.95;;
64110;SDS011;50401;48.188;11.566;2022-08-06T00:35:02;12.13;;;3.83;;
64110;SDS011;50401;48.188;11.566;2022-08-06T00:37:28;5.63;;;3.42;;
64110;SDS011;50401;48.188;11.566;2022-08-06T00:39:57;4.63;;;3.47;;
64110;SDS011;50401;48.188;11.566;2022-08-06T00:42:23;6.32;;;3.38;;
64110;SDS011;50401;48.188;11.566;2022-08-06T00:44:48;6.88;;;3.40;;
64110;SDS011;50401;48.188;11.566;2022-08-06T00:47:14;10.23;;;3.25;;
64110;SDS011;50401;48.188;11.566;2022-08-06T00:49:39;7.53;;;3.65;;
64110;SDS011;50401;48.188;11.566;2022-08-06T00:52:04;7.38;;;3.45;;
64110;SDS011;50401;48.188;11.566;2022-08-06T00:54:30;6.80;;;3.70;;
64110;SDS011;50401;48.188;11.566;2022-08-06T00:56:55;7.75;;;3.95;;
64110;SDS011;50401;48.188;11.566;2022-08-06T00:59:21;12.57;;;3.40;;
64110;SDS011;50401;48.188;11.566;2022-08-06T01:01:46;5.45;;;3.40;;
64110;SDS011;50401;48.188;11.566;2022-08-06T01:04:11;6.03;;;3.88;;
64110;SDS011;50401;48.188;11.566;2022-08-06T01:06:37;6.40;;;3.55;;
64110;SDS011;50401;48.188;11.566;2022-08-06T01:09:03;6.03;;;3.60;;
64110;SDS011;50401;48.188;11.566;2022-08-06T01:11:29;11.18;;;3.85;;
64110;SDS011;50401;48.188;11.566;2022-08-06T01:13:54;10.38;;;3.78;;
64110;SDS011;50401;48.188;11.566;2022-08-06T01:18:59;4.82;;;3.00;;
64110;SDS011;50401;48.188;11.566;2022-08-06T01:22:04;5.03;;;2.72;;
64110;SDS011;50401;48.188;11.566;2022-08-06T01:25:13;6.30;;;2.95;;
64110;SDS011;50401;48.188;11.566;2022-08-06T01:27:59;5.40;;;2.75;;
64110;SDS011;50401;48.188;11.566;2022-08-06T01:30:36;3.47;;;2.50;;
64110;SDS011;50401;48.188;11.566;2022-08-06T01:33:09;5.40;;;2.78;;
64110;SDS011;50401;48.188;11.566;2022-08-06T01:35:44;4.88;;;2.90;;
64110;SDS011;50401;48.188;11.566;2022-08-06T01:38:17;3.45;;;2.55;;
64110;SDS011;50401;48.188;11.566;2022-08-06T01:40:46;4.32;;;2.58;;
64110;SDS011;50401;48.188;11.566;2022-08-06T01:43:14;3.58;;;2.80;;
64110;SDS011;50401;48.188;11.566;2022-08-06T01:45:42;6.43;;;2.88;;
64110;SDS011;50401;48.188;11.566;2022-08-06T01:48:09;3.55;;;2.65;;
64110;SDS011;50401;48.188;11.566;2022-08-06T01:50:39;5.28;;;2.13;;
64110;SDS011;50401;48.188;11.566;2022-08-06T01:53:11;5.38;;;3.17;;
64110;SDS011;50401;48.188;11.566;2022-08-06T01:55:41;6.82;;;3.45;;
64110;SDS011;50401;48.188;11.566;2022-08-06T01:58:08;3.83;;;2.22;;
64110;SDS011;50401;48.188;11.566;2022-08-06T02:00:37;6.82;;;2.47;;
64110;SDS011;50401;48.188;11.566;2022-08-06T02:03:08;5.50;;;2.50;;
64110;SDS011;50401;48.188;11.566;2022-08-06T02:05:38;4.82;;;2.58;;
64110;SDS011;50401;48.188;11.566;2022-08-06T02:08:05;5.13;;;2.83;;
64110;SDS011;50401;48.188;11.566;2022-08-06T02:10:34;4.97;;;2.78;;
64110;SDS011;50401;48.188;11.566;2022-08-06T02:13:01;4.25;;;2.47;;
64110;SDS011;50401;48.188;11.566;2022-08-06T02:15:28;5.90;;;2.50;;
64110;SDS011;50401;48.188;11.566;2022-08-06T02:17:57;7.05;;;2.30;;
64110;SDS011;50401;48.188;11.566;2022-08-06T02:20:29;5.88;;;2.83;;
64110;SDS011;50401;48.188;11.566;2022-08-06T02:22:57;3.95;;;2.33;;
64110;SDS011;50401;48.188;11.566;2022-08-06T02:25:31;4.00;;;2.38;;
64110;SDS011;50401;48.188;11.566;2022-08-06T02:28:01;3.63;;;2.50;;
64110;SDS011;50401;48.188;11.566;2022-08-06T02:30:34;4.43;;;3.00;;
64110;SDS011;50401;48.188;11.566;2022-08-06T02:33:06;3.20;;;2.83;;
64110;SDS011;50401;48.188;11.566;2022-08-06T02:35:33;4.53;;;2.80;;
64110;SDS011;50401;48.188;11.566;2022-08-06T02:38:07;4.18;;;2.70;;
64110;SDS011;50401;48.188;11.566;2022-08-06T02:40:37;5.28;;;2.83;;
64110;SDS011;50401;48.188;11.566;2022-08-06T02:43:17;5.07;;;2.90;;
64110;SDS011;50401;48.188;11.566;2022-08-06T02:46:07;6.35;;;3.00;;
64110;SDS011;50401;48.188;11.566;2022-08-06T02:48:43;5.78;;;3.17;;
64110;SDS011;50401;48.188;11.566;2022-08-06T02:51:17;6.15;;;3.15;;
64110;SDS011;50401;48.188;11.566;2022-08-06T02:53:55;7.85;;;3.38;;
64110;SDS011;50401;48.188;11.566;2022-08-06T02:56:24;6.90;;;3.50;;
64110;SDS011;50401;48.188;11.566;2022-08-06T02:58:51;4.22;;;3.40;;
64110;SDS011;50401;48.188;11.566;2022-08-06T03:01:20;5.35;;;3.40;;
64110;SDS011;50401;48.188;11.566;2022-08-06T03:03:48;7.20;;;3.72;;
64110;SDS011;50401;48.188;11.566;2022-08-06T03:06:17;6.72;;;3.70;;
64110;SDS011;50401;48.188;11.566;2022-08-06T03:08:44;7.17;;;4.33;;
64110;SDS011;50401;48.188;11.566;2022-08-06T03:11:11;9.38;;;4.55;;
64110;SDS011;50401;48.188;11.566;2022-08-06T03:13:38;8.55;;;5.03;;
64110;SDS011;50401;48.188;11.566;2022-08-06T03:16:04;6.97;;;4.82;;
64110;SDS011;50401;48.188;11.566;2022-08-06T03:18:32;8.13;;;4.90;;
64110;SDS011;50401;48.188;11.566;2022-08-06T03:20:59;11.20;;;5.32;;
64110;SDS011;50401;48.188;11.566;2022-08-06T03:23:26;8.52;;;5.50;;
64110;SDS011;50401;48.188;11.566;2022-08-06T03:25:55;12.13;;;6.70;;
64110;SDS011;50401;48.188;11.566;2022-08-06T03:28:22;9.05;;;5.35;;
64110;SDS011;50401;48.188;11.566;2022-08-06T03:30:49;11.10;;;6.30;;
64110;SDS011;50401;48.188;11.566;2022-08-06T03:33:15;12.93;;;6.20;;
64110;SDS011;50401;48.188;11.566;2022-08-06T03:35:41;10.07;;;6.00;;
64110;SDS011;50401;48.188;11.566;2022-08-06T03:38:09;17.65;;;12.00;;
64110;SDS011;50401;48.188;11.566;2022-08-06T03:40:36;13.77;;;7.82;;
64110;SDS011;50401;48.188;11.566;2022-08-06T03:43:04;17.77;;;11.23;;
64110;SDS011;50401;48.188;11.566;2022-08-06T03:45:30;15.38;;;11.63;;
64110;SDS011;50401;48.188;11.566;2022-08-06T03:47:59;19.13;;;10.93;;
64110;SDS011;50401;48.188;11.566;2022-08-06T03:50:32;16.10;;;9.88;;
64110;SDS011;50401;48.188;11.566;2022-08-06T03:53:33;13.25;;;8.07;;
64110;SDS011;50401;48.188;11.566;2022-08-06T03:55:56;12.80;;;10.18;;
64110;SDS011;50401;48.188;11.566;2022-08-06T03:58:23;14.68;;;10.40;;
64110;SDS011;50401;48.188;11.566;2022-08-06T04:01:09;12.48;;;9.18;;
64110;SDS011;50401;48.188;11.566;2022-08-06T04:03:37;12.05;;;8.80;;
64110;SDS011;50401;48.188;11.566;2022-08-06T04:06:04;14.43;;;9.43;;
64110;SDS011;50401;48.188;11.566;2022-08-06T04:08:34;16.65;;;11.57;;
64110;SDS011;50401;48.188;11.566;2022-08-06T04:11:02;15.48;;;10.25;;
64110;SDS011;50401;48.188;11.566;2022-08-06T04:13:27;20.05;;;13.60;;
64110;SDS011;50401;48.188;11.566;2022-08-06T04:15:53;22.13;;;14.57;;
64110;SDS011;50401;48.188;11.566;2022-08-06T04:18:21;22.75;;;16.02;;
64110;SDS011;50401;48.188;11.566;2022-08-06T04:20:50;25.67;;;17.40;;
64110;SDS011;50401;48.188;11.566;2022-08-06T04:23:18;29.25;;;17.58;;
64110;SDS011;50401;48.188;11.566;2022-08-06T04:25:49;29.42;;;19.55;;
64110;SDS011;50401;48.188;11.566;2022-08-06T04:28:17;35.60;;;25.60;;
64110;SDS011;50401;48.188;11.566;2022-08-06T04:30:44;35.58;;;24.65;;
64110;SDS011;50401;48.188;11.566;2022-08-06T04:33:13;36.87;;;27.83;;
64110;SDS011;50401;48.188;11.566;2022-08-06T04:35:40;38.92;;;29.02;;
64110;SDS011;50401;48.188;11.566;2022-08-06T04:38:07;35.90;;;24.73;;
64110;SDS011;50401;48.188;11.566;2022-08-06T04:40:35;39.38;;;26.02;;
64110;SDS011;50401;48.188;11.566;2022-08-06T04:43:02;38.47;;;24.30;;
64110;SDS011;50401;48.188;11.566;2022-08-06T04:47:55;30.55;;;23.38;;
64110;SDS011;50401;48.188;11.566;2022-08-06T04:50:21;26.08;;;19.08;;
64110;SDS011;50401;48.188;11.566;2022-08-06T04:52:47;24.25;;;19.10;;
64110;SDS011;50401;48.188;11.566;2022-08-06T04:55:12;23.33;;;14.77;;
64110;SDS011;50401;48.188;11.566;2022-08-06T04:57:38;16.27;;;13.00;;
64110;SDS011;50401;48.188;11.566;2022-08-06T05:00:03;17.42;;;12.68;;
64110;SDS011;50401;48.188;11.566;2022-08-06T05:02:29;17.25;;;12.68;;
64110;SDS011;50401;48.188;11.566;2022-08-06T05:04:54;17.58;;;14.43;;
64110;SDS011;50401;48.188;11.566;2022-08-06T05:07:23;21.52;;;15.90;;
64110;SDS011;50401;48.188;11.566;2022-08-06T05:09:50;17.25;;;13.43;;
64110;SDS011;50401;48.188;11.566;2022-08-06T05:12:21;17.70;;;14.20;;
64110;SDS011;50401;48.188;11.566;2022-08-06T05:14:54;19.20;;;13.93;;
64110;SDS011;50401;48.188;11.566;2022-08-06T05:17:24;13.70;;;10.27;;
64110;SDS011;50401;48.188;11.566;2022-08-06T05:19:53;14.63;;;11.68;;
64110;SDS011;50401;48.188;11.566;2022-08-06T05:22:22;16.20;;;13.70;;
64110;SDS011;50401;48.188;11.566;2022-08-06T05:24:48;21.38;;;13.77;;
64110;SDS011;50401;48.188;11.566;2022-08-06T05:27:14;19.20;;;13.57;;
64110;SDS011;50401;48.188;11.566;2022-08-06T05:29:40;16.63;;;13.30;;
64110;SDS011;50401;48.188;11.566;2022-08-06T05:32:06;17.60;;;12.68;;
64110;SDS011;50401;48.188;11.566;2022-08-06T05:34:32;13.73;;;10.68;;
64110;SDS011;50401;48.188;11.566;2022-08-06T05:36:59;18.50;;;11.05;;
64110;SDS011;50401;48.188;11.566;2022-08-06T05:39:24;13.68;;;10.20;;
64110;SDS011;50401;48.188;11.566;2022-08-06T05:41:50;13.18;;;7.28;;
64110;SDS011;50401;48.188;11.566;2022-08-06T05:44:15;10.40;;;7.10;;
64110;SDS011;50401;48.188;11.566;2022-08-06T05:47:23;9.35;;;7.47;;
64110;SDS011;50401;48.188;11.566;2022-08-06T05:49:39;11.00;;;6.10;;
64110;SDS011;50401;48.188;11.566;2022-08-06T05:52:23;12.32;;;9.10;;
64110;SDS011;50401;48.188;11.566;2022-08-06T05:54:58;11.93;;;9.52;;
64110;SDS011;50401;48.188;11.566;2022-08-06T05:57:32;11.88;;;6.97;;
64110;SDS011;50401;48.188;11.566;2022-08-06T06:00:07;14.10;;;10.15;;
64110;SDS011;50401;48.188;11.566;2022-08-06T06:02:36;11.85;;;9.15;;
64110;SDS011;50401;48.188;11.566;2022-08-06T06:05:04;16.83;;;8.20;;
64110;SDS011;50401;48.188;11.566;2022-08-06T06:07:31;12.40;;;8.88;;
64110;SDS011;50401;48.188;11.566;2022-08-06T06:09:57;11.98;;;7.38;;
64110;SDS011;50401;48.188;11.566;2022-08-06T06:12:22;12.38;;;8.20;;
64110;SDS011;50401;48.188;11.566;2022-08-06T06:14:49;12.65;;;8.13;;
64110;SDS011;50401;48.188;11.566;2022-08-06T06:17:24;12.68;;;9.32;;
64110;SDS011;50401;48.188;11.566;2022-08-06T06:20:16;10.40;;;8.63;;
64110;SDS011;50401;48.188;11.566;2022-08-06T06:22:54;6.57;;;5.82;;
64110;SDS011;50401;48.188;11.566;2022-08-06T06:25:34;13.32;;;6.50;;
64110;SDS011;50401;48.188;11.566;2022-08-06T06:28:11;13.43;;;8.90;;
64110;SDS011;50401;48.188;11.566;2022-08-06T06:33:35;10.15;;;7.82;;
64110;SDS011;50401;48.188;11.566;2022-08-06T06:36:03;11.02;;;8.27;;
64110;SDS011;50401;48.188;11.566;2022-08-06T06:38:40;12.20;;;8.18;;
64110;SDS011;50401;48.188;11.566;2022-08-06T06:41:18;13.32;;;8.43;;
64110;SDS011;50401;48.188;11.566;2022-08-06T06:47:02;17.35;;;14.25;;
64110;SDS011;50401;48.188;11.566;2022-08-06T06:49:34;22.83;;;20.23;;
64110;SDS011;50401;48.188;11.566;2022-08-06T06:52:13;12.52;;;11.23;;
64110;SDS011;50401;48.188;11.566;2022-08-06T06:54:45;19.95;;;16.80;;
64110;SDS011;50401;48.188;11.566;2022-08-06T06:57:15;18.70;;;16.10;;
64110;SDS011;50401;48.188;11.566;2022-08-06T06:59:45;12.02;;;9.45;;
64110;SDS011;50401;48.188;11.566;2022-08-06T07:02:22;13.60;;;10.32;;
64110;SDS011;50401;48.188;11.566;2022-08-06T07:04:49;12.85;;;9.82;;
64110;SDS011;50401;48.188;11.566;2022-08-06T07:07:18;17.58;;;15.70;;
64110;SDS011;50401;48.188;11.566;2022-08-06T07:09:44;21.73;;;17.13;;
64110;SDS011;50401;48.188;11.566;2022-08-06T07:12:11;22.00;;;13.52;;
64110;SDS011;50401;48.188;11.566;2022-08-06T07:14:39;17.80;;;15.30;;
64110;SDS011;50401;48.188;11.566;2022-08-06T07:17:06;19.02;;;16.05;;
64110;SDS011;50401;48.188;11.566;2022-08-06T07:19:33;17.23;;;13.80;;
64110;SDS011;50401;48.188;11.566;2022-08-06T07:22:00;20.88;;;15.00;;
64110;SDS011;50401;48.188;11.566;2022-08-06T07:24:27;20.08;;;17.13;;
64110;SDS011;50401;48.188;11.566;2022-08-06T07:29:22;16.67;;;14.35;;
64110;SDS011;50401;48.188;11.566;2022-08-06T07:31:49;18.58;;;14.40;;
64110;SDS011;50401;48.188;11.566;2022-08-06T07:34:15;18.60;;;13.90;;
64110;SDS011;50401;48.188;11.566;2022-08-06T07:36:48;25.45;;;19.55;;
64110;SDS011;50401;48.188;11.566;2022-08-06T07:39:17;24.98;;;19.42;;
64110;SDS011;50401;48.188;11.566;2022-08-06T07:41:49;18.27;;;11.35;;
64110;SDS011;50401;48.188;11.566;2022-08-06T07:44:17;18.58;;;12.80;;
64110;SDS011;50401;48.188;11.566;2022-08-06T07:46:45;20.38;;;14.80;;
64110;SDS011;50401;48.188;11.566;2022-08-06T07:49:15;25.92;;;19.30;;
64110;SDS011;50401;48.188;11.566;2022-08-06T07:51:43;22.67;;;13.73;;
64110;SDS011;50401;48.188;11.566;2022-08-06T07:54:11;17.25;;;12.98;;
64110;SDS011;50401;48.188;11.566;2022-08-06T07:56:37;19.40;;;14.40;;
64110;SDS011;50401;48.188;11.566;2022-08-06T07:59:05;23.48;;;17.63;;
64110;SDS011;50401;48.188;11.566;2022-08-06T08:01:33;21.40;;;17.10;;
64110;SDS011;50401;48.188;11.566;2022-08-06T08:03:59;16.35;;;13.60;;
64110;SDS011;50401;48.188;11.566;2022-08-06T08:06:44;18.95;;;16.27;;
64110;SDS011;50401;48.188;11.566;2022-08-06T08:09:13;20.48;;;16.48;;
64110;SDS011;50401;48.188;11.566;2022-08-06T08:11:41;27.23;;;21.55;;
64110;SDS011;50401;48.188;11.566;2022-08-06T08:14:09;25.55;;;15.05;;
64110;SDS011;50401;48.188;11.566;2022-08-06T08:16:37;22.73;;;18.45;;
64110;SDS011;50401;48.188;11.566;2022-08-06T08:19:03;26.45;;;15.77;;
64110;SDS011;50401;48.188;11.566;2022-08-06T08:21:43;22.85;;;16.88;;
64110;SDS011;50401;48.188;11.566;2022-08-06T08:24:09;29.00;;;16.65;;
64110;SDS011;50401;48.188;11.566;2022-08-06T08:26:35;21.35;;;14.43;;
64110;SDS011;50401;48.188;11.566;2022-08-06T08:29:00;27.58;;;14.05;;
64110;SDS011;50401;48.188;11.566;2022-08-06T08:31:26;29.65;;;16.27;;
64110;SDS011;50401;48.188;11.566;2022-08-06T08:33:51;28.25;;;15.63;;
64110;SDS011;50401;48.188;11.566;2022-08-06T08:36:17;26.30;;;14.88;;
64110;SDS011;50401;48.188;11.566;2022-08-06T08:41:19;24.50;;;18.17;;
64110;SDS011;50401;48.188;11.566;2022-08-06T08:43:50;20.45;;;15.15;;
64110;SDS011;50401;48.188;11.566;2022-08-06T08:46:21;17.95;;;14.05;;
64110;SDS011;50401;48.188;11.566;2022-08-06T08:48:47;25.02;;;14.55;;
64110;SDS011;50401;48.188;11.566;2022-08-06T08:51:13;24.45;;;14.60;;
64110;SDS011;50401;48.188;11.566;2022-08-06T08:53:51;23.20;;;15.60;;
64110;SDS011;50401;48.188;11.566;2022-08-06T08:58:44;21.83;;;13.57;;
64110;SDS011;50401;48.188;11.566;2022-08-06T09:01:10;23.42;;;14.15;;
64110;SDS011;50401;48.188;11.566;2022-08-06T09:03:38;21.50;;;14.20;;
64110;SDS011;50401;48.188;11.566;2022-08-06T09:06:04;20.52;;;15.10;;
64110;SDS011;50401;48.188;11.566;2022-08-06T09:08:31;19.00;;;14.25;;
64110;SDS011;50401;48.188;11.566;2022-08-06T09:10:57;20.10;;;14.32;;
64110;SDS011;50401;48.188;11.566;2022-08-06T09:13:23;19.27;;;13.77;;
64110;SDS011;50401;48.188;11.566;2022-08-06T09:15:50;24.00;;;14.45;;
64110;SDS011;50401;48.188;11.566;2022-08-06T09:18:19;23.15;;;14.52;;
64110;SDS011;50401;48.188;11.566;2022-08-06T09:20:45;20.55;;;14.70;;
64110;SDS011;50401;48.188;11.566;2022-08-06T09:23:10;19.52;;;13.45;;
64110;SDS011;50401;48.188;11.566;2022-08-06T09:25:41;18.63;;;13.57;;
64110;SDS011;50401;48.188;11.566;2022-08-06T09:28:32;17.15;;;13.00;;
64110;SDS011;50401;48.188;11.566;2022-08-06T09:31:01;17.17;;;13.55;;
64110;SDS011;50401;48.188;11.566;2022-08-06T09:33:30;15.43;;;11.90;;
64110;SDS011;50401;48.188;11.566;2022-08-06T09:36:00;16.55;;;12.20;;
64110;SDS011;50401;48.188;11.566;2022-08-06T09:38:28;13.82;;;11.48;;
64110;SDS011;50401;48.188;11.566;2022-08-06T09:41:07;17.33;;;11.98;;
64110;SDS011;50401;48.188;11.566;2022-08-06T09:43:35;15.15;;;11.77;;
64110;SDS011;50401;48.188;11.566;2022-08-06T09:46:01;16.17;;;11.38;;
64110;SDS011;50401;48.188;11.566;2022-08-06T09:48:27;14.63;;;11.20;;
64110;SDS011;50401;48.188;11.566;2022-08-06T09:50:52;14.43;;;11.00;;
64110;SDS011;50401;48.188;11.566;2022-08-06T09:53:18;15.38;;;11.90;;
64110;SDS011;50401;48.188;11.566;2022-08-06T09:55:44;16.48;;;11.20;;
64110;SDS011;50401;48.188;11.566;2022-08-06T09:58:10;14.00;;;10.70;;
64110;SDS011;50401;48.188;11.566;2022-08-06T10:00:36;14.00;;;10.68;;
64110;SDS011;50401;48.188;11.566;2022-08-06T10:03:04;13.93;;;11.20;;
64110;SDS011;50401;48.188;11.566;2022-08-06T10:05:31;15.25;;;11.20;;
64110;SDS011;50401;48.188;11.566;2022-08-06T10:15:41;16.40;;;10.10;;
64110;SDS011;50401;48.188;11.566;2022-08-06T10:18:09;12.23;;;9.98;;
64110;SDS011;50401;48.188;11.566;2022-08-06T10:20:35;14.88;;;10.75;;
64110;SDS011;50401;48.188;11.566;2022-08-06T10:23:00;14.30;;;9.23;;
64110;SDS011;50401;48.188;11.566;2022-08-06T10:25:26;12.93;;;9.30;;
64110;SDS011;50401;48.188;11.566;2022-08-06T10:27:55;11.73;;;9.30;;
64110;SDS011;50401;48.188;11.566;2022-08-06T10:30:21;13.65;;;9.88;;
64110;SDS011;50401;48.188;11.566;2022-08-06T10:32:55;11.63;;;9.30;;
64110;SDS011;50401;48.188;11.566;2022-08-06T10:35:23;14.80;;;9.30;;
64110;SDS011;50401;48.188;11.566;2022-08-06T10:37:52;15.57;;;10.32;;
64110;SDS011;50401;48.188;11.566;2022-08-06T10:40:23;11.35;;;9.05;;
64110;SDS011;50401;48.188;11.566;2022-08-06T10:42:51;15.25;;;9.88;;
64110;SDS011;50401;48.188;11.566;2022-08-06T10:45:17;12.65;;;9.07;;
64110;SDS011;50401;48.188;11.566;2022-08-06T10:47:44;13.70;;;10.48;;
64110;SDS011;50401;48.188;11.566;2022-08-06T10:50:14;12.77;;;9.88;;
64110;SDS011;50401;48.188;11.566;2022-08-06T10:55:06;14.10;;;10.10;;
64110;SDS011;50401;48.188;11.566;2022-08-06T10:57:32;12.38;;;9.52;;
64110;SDS011;50401;48.188;11.566;2022-08-06T10:59:58;12.32;;;10.30;;
64110;SDS011;50401;48.188;11.566;2022-08-06T11:05:05;11.05;;;9.82;;
64110;SDS011;50401;48.188;11.566;2022-08-06T11:15:18;13.23;;;9.68;;
64110;SDS011;50401;48.188;11.566;2022-08-06T11:17:45;12.85;;;9.65;;
64110;SDS011;50401;48.188;11.566;2022-08-06T11:23:01;19.75;;;11.75;;
64110;SDS011;50401;48.188;11.566;2022-08-06T11:28:10;12.68;;;9.98;;
64110;SDS011;50401;48.188;11.566;2022-08-06T11:30:44;14.80;;;9.95;;
64110;SDS011;50401;48.188;11.566;2022-08-06T11:33:14;13.10;;;10.02;;
64110;SDS011;50401;48.188;11.566;2022-08-06T11:35:44;14.90;;;10.95;;
64110;SDS011;50401;48.188;11.566;2022-08-06T11:38:12;10.95;;;9.85;;
64110;SDS011;50401;48.188;11.566;2022-08-06T11:44:03;12.98;;;10.13;;
64110;SDS011;50401;48.188;11.566;2022-08-06T11:54:11;18.45;;;13.60;;
64110;SDS011;50401;48.188;11.566;2022-08-06T11:57:17;19.60;;;13.90;;
64110;SDS011;50401;48.188;11.566;2022-08-06T12:02:09;18.77;;;15.07;;
64110;SDS011;50401;48.188;11.566;2022-08-06T12:14:52;18.48;;;12.32;;
64110;SDS011;50401;48.188;11.566;2022-08-06T12:17:18;14.98;;;11.93;;
64110;SDS011;50401;48.188;11.566;2022-08-06T12:19:45;15.07;;;11.23;;
64110;SDS011;50401;48.188;11.566;2022-08-06T12:22:12;13.67;;;9.67;;
64110;SDS011;50401;48.188;11.566;2022-08-06T12:24:42;11.07;;;9.85;;
64110;SDS011;50401;48.188;11.566;2022-08-06T12:27:09;15.85;;;10.40;;
64110;SDS011;50401;48.188;11.566;2022-08-06T12:29:36;14.73;;;10.18;;
64110;SDS011;50401;48.188;11.566;2022-08-06T12:32:19;13.93;;;10.95;;
64110;SDS011;50401;48.188;11.566;2022-08-06T12:35:00;11.65;;;9.73;;
64110;SDS011;50401;48.188;11.566;2022-08-06T12:37:43;17.52;;;12.00;;
64110;SDS011;50401;48.188;11.566;2022-08-06T12:40:14;16.20;;;9.70;;
64110;SDS011;50401;48.188;11.566;2022-08-06T12:45:28;14.73;;;10.00;;
64110;SDS011;50401;48.188;11.566;2022-08-06T12:47:58;16.30;;;11.07;;
64110;SDS011;50401;48.188;11.566;2022-08-06T12:50:24;22.15;;;9.88;;
64110;SDS011;50401;48.188;11.566;2022-08-06T12:58:15;13.82;;;10.50;;
64110;SDS011;50401;48.188;11.566;2022-08-06T13:00:53;12.45;;;9.82;;
64110;SDS011;50401;48.188;11.566;2022-08-06T13:03:22;12.00;;;9.77;;
64110;SDS011;50401;48.188;11.566;2022-08-06T13:05:49;11.00;;;9.52;;
64110;SDS011;50401;48.188;11.566;2022-08-06T13:08:15;12.15;;;9.57;;
64110;SDS011;50401;48.188;11.566;2022-08-06T13:10:51;11.30;;;9.10;;
64110;SDS011;50401;48.188;11.566;2022-08-06T13:13:17;14.63;;;10.45;;
64110;SDS011;50401;48.188;11.566;2022-08-06T13:15:58;12.27;;;8.77;;
64110;SDS011;50401;48.188;11.566;2022-08-06T13:18:27;14.90;;;9.95;;
64110;SDS011;50401;48.188;11.566;2022-08-06T13:20:53;14.18;;;9.45;;
64110;SDS011;50401;48.188;11.566;2022-08-06T13:26:09;10.95;;;8.85;;
64110;SDS011;50401;48.188;11.566;2022-08-06T13:28:36;10.85;;;8.90;;
64110;SDS011;50401;48.188;11.566;2022-08-06T13:31:01;13.20;;;9.18;;
64110;SDS011;50401;48.188;11.566;2022-08-06T13:33:27;13.85;;;8.98;;
64110;SDS011;50401;48.188;11.566;2022-08-06T13:36:03;13.18;;;8.65;;
64110;SDS011;50401;48.188;11.566;2022-08-06T13:38:32;9.53;;;7.63;;
64110;SDS011;50401;48.188;11.566;2022-08-06T13:43:38;10.48;;;7.32;;
64110;SDS011;50401;48.188;11.566;2022-08-06T13:46:16;9.60;;;8.07;;
64110;SDS011;50401;48.188;11.566;2022-08-06T13:48:42;8.35;;;7.30;;
64110;SDS011;50401;48.188;11.566;2022-08-06T13:51:12;13.88;;;8.93;;
64110;SDS011;50401;48.188;11.566;2022-08-06T13:53:39;10.55;;;8.05;;
64110;SDS011;50401;48.188;11.566;2022-08-06T13:56:04;8.38;;;7.15;;
64110;SDS011;50401;48.188;11.566;2022-08-06T13:58:30;10.98;;;7.88;;
64110;SDS011;50401;48.188;11.566;2022-08-06T14:00:56;9.88;;;7.38;;
64110;SDS011;50401;48.188;11.566;2022-08-06T14:03:22;13.93;;;7.03;;
64110;SDS011;50401;48.188;11.566;2022-08-06T14:05:48;9.25;;;7.30;;
64110;SDS011;50401;48.188;11.566;2022-08-06T14:08:13;8.25;;;7.43;;
64110;SDS011;50401;48.188;11.566;2022-08-06T14:10:39;12.55;;;6.95;;
64110;SDS011;50401;48.188;11.566;2022-08-06T14:13:05;12.68;;;6.90;;
64110;SDS011;50401;48.188;11.566;2022-08-06T14:15:43;12.53;;;7.23;;
64110;SDS011;50401;48.188;11.566;2022-08-06T14:18:10;8.50;;;7.47;;
64110;SDS011;50401;48.188;11.566;2022-08-06T14:20:36;9.52;;;7.55;;
64110;SDS011;50401;48.188;11.566;2022-08-06T14:23:01;8.18;;;6.70;;
64110;SDS011;50401;48.188;11.566;2022-08-06T14:25:27;10.27;;;7.30;;
64110;SDS011;50401;48.188;11.566;2022-08-06T14:27:53;9.20;;;6.10;;
64110;SDS011;50401;48.188;11.566;2022-08-06T14:30:19;8.93;;;6.90;;
64110;SDS011;50401;48.188;11.566;2022-08-06T14:32:45;12.48;;;7.47;;
64110;SDS011;50401;48.188;11.566;2022-08-06T14:35:11;8.68;;;7.63;;
64110;SDS011;50401;48.188;11.566;2022-08-06T14:37:38;12.43;;;8.45;;
64110;SDS011;50401;48.188;11.566;2022-08-06T14:40:04;8.57;;;7.68;;
64110;SDS011;50401;48.188;11.566;2022-08-06T14:42:29;11.65;;;8.38;;
64110;SDS011;50401;48.188;11.566;2022-08-06T14:45:14;9.02;;;8.10;;
64110;SDS011;50401;48.188;11.566;2022-08-06T14:47:40;12.30;;;9.00;;
64110;SDS011;50401;48.188;11.566;2022-08-06T14:50:06;12.77;;;8.65;;
64110;SDS011;50401;48.188;11.566;2022-08-06T14:52:32;13.38;;;7.75;;
64110;SDS011;50401;48.188;11.566;2022-08-06T14:54:57;12.85;;;8.35;;
64110;SDS011;50401;48.188;11.566;2022-08-06T14:57:24;10.55;;;7.07;;
64110;SDS011;50401;48.188;11.566;2022-08-06T14:59:49;8.95;;;6.90;;
64110;SDS011;50401;48.188;11.566;2022-08-06T15:02:15;9.13;;;7.18;;
64110;SDS011;50401;48.188;11.566;2022-08-06T15:04:41;12.93;;;7.68;;
64110;SDS011;50401;48.188;11.566;2022-08-06T15:07:06;7.82;;;6.05;;
64110;SDS011;50401;48.188;11.566;2022-08-06T15:09:32;15.65;;;10.05;;
64110;SDS011;50401;48.188;11.566;2022-08-06T15:11:59;8.82;;;7.10;;
64110;SDS011;50401;48.188;11.566;2022-08-06T15:14:24;9.68;;;6.78;;
64110;SDS011;50401;48.188;11.566;2022-08-06T15:16:51;8.38;;;6.05;;
64110;SDS011;50401;48.188;11.566;2022-08-06T15:19:17;10.40;;;7.25;;
64110;SDS011;50401;48.188;11.566;2022-08-06T15:21:43;8.27;;;6.55;;
64110;SDS011;50401;48.188;11.566;2022-08-06T15:24:08;7.88;;;6.25;;
64110;SDS011;50401;48.188;11.566;2022-08-06T15:26:34;10.05;;;7.05;;
64110;SDS011;50401;48.188;11.566;2022-08-06T15:28:59;8.45;;;6.90;;
64110;SDS011;50401;48.188;11.566;2022-08-06T15:31:26;10.15;;;7.53;;
64110;SDS011;50401;48.188;11.566;2022-08-06T15:33:52;9.48;;;7.95;;
64110;SDS011;50401;48.188;11.566;2022-08-06T15:36:17;8.73;;;7.07;;
64110;SDS011;50401;48.188;11.566;2022-08-06T15:38:42;8.80;;;6.85;;
64110;SDS011;50401;48.188;11.566;2022-08-06T15:41:08;9.80;;;7.05;;
64110;SDS011;50401;48.188;11.566;2022-08-06T15:43:33;8.38;;;6.97;;
64110;SDS011;50401;48.188;11.566;2022-08-06T15:45:59;14.95;;;7.47;;
64110;SDS011;50401;48.188;11.566;2022-08-06T15:48:28;9.73;;;7.43;;
64110;SDS011;50401;48.188;11.566;2022-08-06T15:50:54;12.98;;;7.65;;
64110;SDS011;50401;48.188;11.566;2022-08-06T15:53:21;11.07;;;7.28;;
64110;SDS011;50401;48.188;11.566;2022-08-06T15:55:47;11.32;;;6.10;;